createdAt,value
2018-09-24T00:02:14.081Z,99.90
2018-09-24T00:04:42.702Z,99.90
2018-09-24T00:07:11.532Z,99.90
2018-09-24T00:09:40.166Z,99.90
2018-09-24T00:12:08.998Z,99.90
2018-09-24T00:14:38.249Z,99.90
2018-09-24T00:17:06.884Z,99.90
2018-09-24T00:19:35.558Z,99.90
2018-09-24T00:22:04.174Z,99.90
2018-09-24T00:24:32.777Z,99.90
2018-09-24T00:27:01.296Z,99.90
2018-09-24T00:29:29.944Z,99.90
2018-09-24T00:31:58.457Z,99.90
2018-09-24T00:34:27.028Z,99.90
2018-09-24T00:36:55.540Z,99.90
2018-09-24T00:39:24.409Z,99.90
2018-09-24T00:41:53.483Z,99.90
2018-09-24T00:44:22.036Z,99.90
2018-09-24T00:46:50.720Z,99.90
2018-09-24T00:49:19.415Z,99.90
2018-09-24T00:51:48.235Z,99.90
2018-09-24T00:54:16.813Z,99.90
2018-09-24T00:56:46.000Z,99.90
2018-09-24T00:59:14.556Z,99.90
2018-09-24T01:01:43.592Z,99.90
2018-09-24T01:04:12.193Z,99.90
2018-09-24T01:06:40.999Z,99.90
2018-09-24T01:09:11.288Z,99.90
2018-09-24T01:11:40.148Z,99.90
2018-09-24T01:14:08.883Z,99.90
2018-09-24T01:16:37.333Z,99.90
2018-09-24T01:19:06.114Z,99.90
2018-09-24T01:21:34.776Z,99.90
2018-09-24T01:24:03.318Z,99.90
2018-09-24T01:26:31.949Z,99.90
2018-09-24T01:29:00.452Z,99.90
2018-09-24T01:31:29.044Z,99.90
2018-09-24T01:33:57.922Z,99.90
2018-09-24T01:36:26.466Z,99.90
2018-09-24T01:38:55.172Z,99.90
2018-09-24T01:41:23.729Z,99.90
2018-09-24T01:43:52.240Z,99.90
2018-09-24T01:46:21.024Z,99.90
2018-09-24T01:48:49.715Z,99.90
2018-09-24T01:51:18.266Z,99.90
2018-09-24T01:53:46.851Z,99.90
2018-09-24T01:56:15.458Z,99.90
2018-09-24T01:58:44.990Z,99.90
2018-09-24T02:01:13.502Z,99.90
2018-09-24T02:03:41.975Z,99.90
2018-09-24T02:06:10.615Z,99.90
2018-09-24T02:08:43.711Z,99.90
2018-09-24T02:11:12.439Z,99.90
2018-09-24T02:13:47.788Z,99.90
2018-09-24T02:16:16.736Z,99.90
2018-09-24T02:18:45.572Z,99.90
2018-09-24T02:21:14.317Z,99.90
2018-09-24T02:23:42.801Z,99.90
2018-09-24T02:26:11.592Z,99.90
2018-09-24T02:28:40.568Z,99.90
2018-09-24T02:31:09.425Z,99.90
2018-09-24T02:33:38.076Z,99.90
2018-09-24T02:36:06.690Z,99.90
2018-09-24T02:38:39.378Z,99.90
2018-09-24T02:41:08.700Z,99.90
2018-09-24T02:43:37.216Z,99.90
2018-09-24T02:46:05.769Z,99.90
2018-09-24T02:48:34.571Z,99.90
2018-09-24T02:51:03.077Z,99.90
2018-09-24T02:53:39.648Z,99.90
2018-09-24T02:56:08.788Z,99.90
2018-09-24T02:58:37.359Z,99.90
2018-09-24T03:01:05.962Z,99.90
2018-09-24T03:03:34.455Z,99.90
2018-09-24T03:06:03.001Z,99.90
2018-09-24T03:08:32.032Z,99.90
2018-09-24T03:11:04.392Z,99.90
2018-09-24T03:13:32.968Z,99.90
2018-09-24T03:16:01.536Z,99.90
2018-09-24T03:18:30.100Z,99.90
2018-09-24T03:20:58.766Z,99.90
2018-09-24T03:23:27.236Z,99.90
2018-09-24T03:25:55.968Z,99.90
2018-09-24T03:28:24.605Z,99.90
2018-09-24T03:30:53.021Z,99.90
2018-09-24T03:33:21.575Z,99.90
2018-09-24T03:35:50.145Z,99.90
2018-09-24T03:38:18.667Z,99.90
2018-09-24T03:40:47.395Z,99.90
2018-09-24T03:43:16.244Z,99.90
2018-09-24T03:45:44.744Z,99.90
2018-09-24T03:48:14.000Z,99.90
2018-09-24T03:50:42.778Z,99.90
2018-09-24T03:53:11.257Z,99.90
2018-09-24T03:55:39.768Z,99.90
2018-09-24T03:58:08.390Z,99.90
2018-09-24T04:00:36.876Z,99.90
2018-09-24T04:03:06.292Z,99.90
2018-09-24T04:05:40.281Z,99.90
2018-09-24T04:08:14.282Z,99.90
2018-09-24T04:10:48.554Z,99.90
2018-09-24T04:13:22.260Z,99.90
2018-09-24T04:15:56.487Z,99.90
2018-09-24T04:18:31.416Z,99.90
2018-09-24T04:21:05.234Z,99.90
2018-09-24T04:23:38.977Z,99.90
2018-09-24T04:26:12.944Z,99.90
2018-09-24T04:28:46.861Z,99.90
2018-09-24T04:31:20.814Z,99.90
2018-09-24T04:33:54.795Z,99.90
2018-09-24T04:36:28.786Z,99.90
2018-09-24T04:39:03.087Z,99.90
2018-09-24T04:41:37.636Z,99.90
2018-09-24T04:44:11.424Z,99.90
2018-09-24T04:46:45.432Z,99.90
2018-09-24T04:49:19.322Z,99.90
2018-09-24T04:51:53.294Z,99.90
2018-09-24T04:54:26.997Z,99.90
2018-09-24T04:57:01.561Z,99.90
2018-09-24T04:59:36.370Z,99.90
2018-09-24T05:02:10.370Z,99.90
2018-09-24T05:04:44.300Z,99.90
2018-09-24T05:07:18.856Z,99.90
2018-09-24T05:09:52.613Z,99.90
2018-09-24T05:12:26.477Z,99.90
2018-09-24T05:15:00.272Z,99.90
2018-09-24T05:17:34.081Z,99.90
2018-09-24T05:20:08.134Z,99.90
2018-09-24T05:22:42.171Z,99.90
2018-09-24T05:25:16.285Z,99.90
2018-09-24T05:27:50.008Z,99.90
2018-09-24T05:30:24.810Z,99.90
2018-09-24T05:32:58.590Z,99.90
2018-09-24T05:35:32.619Z,99.90
2018-09-24T05:38:06.423Z,99.90
2018-09-24T05:40:40.255Z,99.90
2018-09-24T05:43:14.101Z,99.90
2018-09-24T05:45:47.808Z,99.90
2018-09-24T05:48:21.611Z,99.90
2018-09-24T05:50:55.596Z,99.90
2018-09-24T05:53:29.355Z,99.90
2018-09-24T05:56:03.478Z,99.90
2018-09-24T05:58:37.561Z,99.90
2018-09-24T06:01:11.652Z,99.90
2018-09-24T06:03:45.822Z,99.90
2018-09-24T06:06:19.590Z,99.90
2018-09-24T06:08:53.495Z,99.90
2018-09-24T06:11:27.374Z,99.90
2018-09-24T06:14:01.418Z,99.90
2018-09-24T06:16:42.244Z,99.90
2018-09-24T06:19:16.336Z,99.90
2018-09-24T06:21:50.558Z,99.90
2018-09-24T06:24:24.631Z,99.90
2018-09-24T06:26:58.590Z,99.90
2018-09-24T06:29:32.806Z,99.90
2018-09-24T06:32:06.802Z,99.90
2018-09-24T06:34:40.845Z,99.90
2018-09-24T06:37:14.506Z,99.90
2018-09-24T06:39:48.471Z,99.90
2018-09-24T06:42:22.396Z,99.90
2018-09-24T06:44:56.388Z,99.90
2018-09-24T06:47:30.069Z,99.90
2018-09-24T06:50:04.276Z,99.90
2018-09-24T06:52:38.537Z,99.90
2018-09-24T06:55:12.652Z,99.90
2018-09-24T06:57:46.416Z,99.90
2018-09-24T07:00:20.157Z,99.90
2018-09-24T07:02:53.984Z,99.90
2018-09-24T07:05:27.891Z,99.90
2018-09-24T07:08:01.539Z,99.90
2018-09-24T07:10:35.392Z,99.90
2018-09-24T07:13:09.361Z,99.90
2018-09-24T07:15:43.317Z,99.90
2018-09-24T07:18:17.207Z,99.90
2018-09-24T07:20:51.207Z,99.90
2018-09-24T07:23:25.133Z,99.90
2018-09-24T07:25:58.893Z,99.90
2018-09-24T07:28:32.957Z,99.90
2018-09-24T07:31:07.316Z,99.90
2018-09-24T07:33:41.228Z,99.90
2018-09-24T07:36:15.097Z,99.90
2018-09-24T07:38:48.877Z,99.90
2018-09-24T07:41:22.685Z,99.90
2018-09-24T07:43:56.753Z,99.90
2018-09-24T07:46:30.650Z,99.90
2018-09-24T07:49:05.277Z,99.90
2018-09-24T07:51:39.059Z,99.90
2018-09-24T07:54:13.057Z,99.90
2018-09-24T07:56:47.053Z,99.90
2018-09-24T07:59:21.561Z,99.90
2018-09-24T08:01:55.404Z,99.90
2018-09-24T08:04:29.549Z,99.90
2018-09-24T08:07:03.494Z,99.90
2018-09-24T08:09:37.702Z,99.90
2018-09-24T08:12:11.915Z,99.90
2018-09-24T08:14:45.756Z,99.90
2018-09-24T08:17:20.009Z,99.90
2018-09-24T08:19:53.954Z,99.90
2018-09-24T08:22:27.871Z,99.90
2018-09-24T08:25:02.250Z,99.90
2018-09-24T08:27:36.367Z,99.90
2018-09-24T08:30:10.532Z,99.90
2018-09-24T08:32:44.489Z,99.90
2018-09-24T08:35:19.164Z,99.90
2018-09-24T08:37:53.626Z,99.90
2018-09-24T08:40:27.520Z,99.90
2018-09-24T08:43:01.910Z,99.90
2018-09-24T08:45:35.983Z,99.90
2018-09-24T08:48:10.161Z,99.90
2018-09-24T08:50:44.192Z,99.90
2018-09-24T08:53:18.299Z,99.90
2018-09-24T08:55:52.429Z,99.90
2018-09-24T08:58:26.380Z,99.90
2018-09-24T09:01:00.276Z,99.90
2018-09-24T09:03:34.025Z,99.90
2018-09-24T09:06:07.849Z,99.90
2018-09-24T09:08:41.676Z,99.90
2018-09-24T09:11:15.436Z,99.90
2018-09-24T09:13:49.390Z,99.90
2018-09-24T09:16:23.347Z,99.90
2018-09-24T09:18:58.604Z,99.90
2018-09-24T09:21:32.501Z,99.90
2018-09-24T09:24:06.567Z,99.90
2018-09-24T09:26:40.832Z,99.90
2018-09-24T09:29:15.011Z,99.90
2018-09-24T09:31:48.832Z,99.90
2018-09-24T09:34:22.762Z,99.90
2018-09-24T09:36:56.703Z,99.90
2018-09-24T09:39:30.728Z,99.90
2018-09-24T09:42:04.647Z,99.90
2018-09-24T09:44:38.406Z,99.90
2018-09-24T09:47:12.421Z,99.90
2018-09-24T09:49:46.446Z,99.90
2018-09-24T09:52:20.616Z,99.90
2018-09-24T09:54:54.396Z,99.90
2018-09-24T09:57:28.460Z,99.90
2018-09-24T10:00:02.341Z,99.90
2018-09-24T10:02:36.263Z,99.90
2018-09-24T10:05:10.268Z,99.90
2018-09-24T10:07:44.263Z,99.90
2018-09-24T10:10:18.317Z,99.90
2018-09-24T10:12:52.337Z,99.90
2018-09-24T10:15:26.240Z,99.90
2018-09-24T10:17:59.992Z,99.90
2018-09-24T10:20:33.684Z,99.90
2018-09-24T10:23:07.480Z,99.90
2018-09-24T10:25:41.451Z,99.90
2018-09-24T10:28:15.294Z,99.90
2018-09-24T10:30:49.048Z,99.90
2018-09-24T10:33:23.189Z,99.90
2018-09-24T10:35:56.889Z,99.90
2018-09-24T10:38:30.828Z,99.90
2018-09-24T10:41:04.625Z,99.90
2018-09-24T10:43:38.587Z,99.90
2018-09-24T10:46:12.505Z,99.90
2018-09-24T10:48:46.215Z,99.90
2018-09-24T10:51:20.309Z,99.90
2018-09-24T10:53:54.274Z,99.90
2018-09-24T10:56:28.244Z,99.90
2018-09-24T10:59:02.384Z,99.90
2018-09-24T11:01:36.411Z,99.90
2018-09-24T11:04:10.248Z,99.90
2018-09-24T11:06:43.979Z,99.90
2018-09-24T11:09:17.927Z,99.90
2018-09-24T11:11:51.869Z,99.90
2018-09-24T11:14:26.074Z,99.90
2018-09-24T11:17:00.246Z,99.90
2018-09-24T11:19:33.884Z,99.90
2018-09-24T11:22:07.716Z,99.90
2018-09-24T11:24:41.355Z,99.90
2018-09-24T11:27:15.132Z,99.90
2018-09-24T11:29:48.826Z,99.90
2018-09-24T11:32:22.771Z,99.90
2018-09-24T11:34:56.636Z,99.90
2018-09-24T11:37:31.627Z,99.90
2018-09-24T11:40:05.410Z,99.90
2018-09-24T11:42:39.334Z,99.90
2018-09-24T11:45:13.060Z,99.90
2018-09-24T11:47:47.651Z,99.90
2018-09-24T11:50:21.493Z,99.90
2018-09-24T11:52:55.400Z,99.90
2018-09-24T11:55:29.582Z,99.90
2018-09-24T11:58:03.672Z,99.90
2018-09-24T12:00:37.634Z,99.90
2018-09-24T12:03:11.591Z,98.80
2018-09-24T12:05:46.012Z,98.20
2018-09-24T12:08:20.081Z,98.30
2018-09-24T12:10:53.846Z,97.50
2018-09-24T12:13:27.897Z,99.60
2018-09-24T12:16:02.220Z,98.10
2018-09-24T12:18:36.116Z,99.20
2018-09-24T12:21:09.924Z,98.50
2018-09-24T12:23:43.831Z,99.40
2018-09-24T12:26:17.662Z,98.10
2018-09-24T12:28:51.512Z,99.10
2018-09-24T12:31:25.214Z,97.20
2018-09-24T12:33:59.005Z,99.20
2018-09-24T12:36:32.793Z,96.30
2018-09-24T12:39:06.721Z,95.20
2018-09-24T12:41:40.605Z,96.20
2018-09-24T12:44:14.677Z,95.40
2018-09-24T12:46:48.643Z,94.30
2018-09-24T12:49:22.440Z,95.20
2018-09-24T12:51:56.241Z,94.30
2018-09-24T12:54:30.458Z,94.50
2018-09-24T12:57:04.372Z,94.10
2018-09-24T12:59:38.195Z,93.80
2018-09-24T13:02:12.253Z,93.00
2018-09-24T13:04:46.424Z,94.80
2018-09-24T13:07:20.594Z,95.40
2018-09-24T13:09:54.612Z,97.10
2018-09-24T13:12:28.788Z,95.20
2018-09-24T13:15:02.772Z,96.90
2018-09-24T13:17:36.689Z,95.00
2018-09-24T13:20:11.279Z,93.10
2018-09-24T13:22:45.331Z,95.20
2018-09-24T13:25:19.526Z,94.90
2018-09-24T13:27:53.412Z,96.10
2018-09-24T13:30:27.604Z,96.10
2018-09-24T13:33:01.380Z,95.90
2018-09-24T13:35:35.422Z,95.10
2018-09-24T13:38:09.389Z,94.80
2018-09-24T13:40:43.489Z,95.10
2018-09-24T13:43:17.571Z,93.60
2018-09-24T13:45:51.500Z,94.50
2018-09-24T13:48:25.941Z,94.80
2018-09-24T13:51:00.104Z,94.10
2018-09-24T13:53:33.865Z,94.20
2018-09-24T13:56:07.838Z,92.60
2018-09-24T13:58:42.396Z,94.40
2018-09-24T14:01:17.172Z,92.10
2018-09-24T14:03:51.088Z,95.30
2018-09-24T14:06:24.883Z,94.90
2018-09-24T14:08:58.907Z,93.10
2018-09-24T14:11:33.144Z,91.70
2018-09-24T14:14:06.909Z,93.30
2018-09-24T14:16:40.700Z,93.10
2018-09-24T14:19:14.672Z,92.90
2018-09-24T14:21:48.726Z,93.60
2018-09-24T14:24:22.612Z,94.20
2018-09-24T14:26:58.435Z,93.60
2018-09-24T14:29:32.362Z,94.50
2018-09-24T14:32:06.254Z,94.00
2018-09-24T14:34:40.964Z,93.40
2018-09-24T14:37:15.092Z,90.40
2018-09-24T14:39:49.127Z,89.10
2018-09-24T14:42:23.051Z,92.70
2018-09-24T14:44:57.371Z,91.20
2018-09-24T14:47:31.305Z,91.10
2018-09-24T14:50:05.275Z,91.40
2018-09-24T14:52:39.201Z,91.10
2018-09-24T14:55:13.885Z,91.80
2018-09-24T14:57:48.130Z,89.20
2018-09-24T15:00:21.977Z,91.60
2018-09-24T15:02:55.855Z,91.50
2018-09-24T15:05:29.683Z,91.50
2018-09-24T15:08:03.782Z,94.10
2018-09-24T15:10:38.362Z,92.30
2018-09-24T15:13:12.427Z,92.80
2018-09-24T15:15:46.291Z,94.80
2018-09-24T15:18:20.181Z,94.10
2018-09-24T15:20:54.807Z,95.00
2018-09-24T15:23:28.663Z,96.60
2018-09-24T15:26:02.701Z,97.50
2018-09-24T15:28:36.878Z,98.20
2018-09-24T15:31:11.218Z,95.70
2018-09-24T15:33:45.568Z,96.70
2018-09-24T15:36:19.421Z,95.10
2018-09-24T15:38:53.224Z,92.70
2018-09-24T15:41:27.253Z,94.60
2018-09-24T15:44:01.030Z,93.00
2018-09-24T15:46:35.119Z,92.80
2018-09-24T15:49:08.912Z,87.20
2018-09-24T15:51:42.749Z,82.10
2018-09-24T15:54:16.574Z,90.60
2018-09-24T15:56:50.572Z,83.20
2018-09-24T15:59:24.412Z,85.60
2018-09-24T16:01:58.265Z,86.30
2018-09-24T16:04:32.229Z,79.40
2018-09-24T16:07:06.336Z,88.40
2018-09-24T16:09:40.453Z,83.60
2018-09-24T16:12:14.165Z,61.30
2018-09-24T16:14:47.975Z,67.70
2018-09-24T16:17:22.042Z,65.20
2018-09-24T16:19:56.045Z,63.80
2018-09-24T16:22:33.578Z,61.50
2018-09-24T16:25:07.706Z,58.20
2018-09-24T16:27:41.827Z,54.10
2018-09-24T16:30:16.530Z,54.20
2018-09-24T16:32:50.524Z,59.40
2018-09-24T16:35:24.707Z,63.10
2018-09-24T16:37:58.529Z,65.10
2018-09-24T16:40:32.704Z,71.70
2018-09-24T16:43:06.816Z,76.00
2018-09-24T16:45:40.975Z,88.30
2018-09-24T16:48:15.292Z,93.50
2018-09-24T16:50:49.209Z,97.80
2018-09-24T16:53:24.118Z,99.90
2018-09-24T16:55:58.265Z,99.90
2018-09-24T16:58:32.312Z,99.90
2018-09-24T17:01:06.293Z,99.90
2018-09-24T17:03:40.176Z,99.90
2018-09-24T17:06:14.201Z,99.90
2018-09-24T17:08:48.009Z,99.90
2018-09-24T17:11:22.002Z,99.90
2018-09-24T17:13:56.017Z,99.90
2018-09-24T17:16:30.102Z,99.90
2018-09-24T17:19:04.269Z,99.90
2018-09-24T17:21:38.328Z,99.90
2018-09-24T17:24:12.380Z,99.90
2018-09-24T17:26:46.243Z,99.90
2018-09-24T17:29:20.713Z,99.90
2018-09-24T17:31:54.624Z,99.90
2018-09-24T17:34:28.789Z,99.90
2018-09-24T17:37:02.845Z,99.90
2018-09-24T17:39:36.994Z,99.90
2018-09-24T17:42:10.905Z,99.90
2018-09-24T17:44:45.099Z,99.90
2018-09-24T17:47:19.188Z,99.90
2018-09-24T17:49:53.098Z,99.90
2018-09-24T17:52:27.038Z,99.90
2018-09-24T17:55:01.702Z,99.90
2018-09-24T17:57:35.646Z,99.90
2018-09-24T18:00:10.064Z,99.90
2018-09-24T18:02:43.938Z,99.90
2018-09-24T18:05:18.075Z,99.90
2018-09-24T18:07:52.160Z,99.90
2018-09-24T18:10:26.138Z,99.90
2018-09-24T18:12:59.992Z,99.90
2018-09-24T18:15:34.294Z,99.90
2018-09-24T18:18:08.526Z,99.90
2018-09-24T18:20:42.513Z,99.90
2018-09-24T18:23:16.602Z,99.90
2018-09-24T18:25:50.660Z,99.90
2018-09-24T18:28:24.773Z,99.90
2018-09-24T18:30:59.062Z,99.90
2018-09-24T18:33:33.150Z,99.90
2018-09-24T18:36:07.154Z,99.90
2018-09-24T18:38:41.402Z,99.90
2018-09-24T18:41:15.533Z,99.90
2018-09-24T18:43:49.624Z,99.90
2018-09-24T18:46:24.409Z,99.90
2018-09-24T18:48:58.559Z,99.90
2018-09-24T18:51:32.687Z,99.90
2018-09-24T18:54:06.689Z,99.90
2018-09-24T18:56:40.831Z,99.90
2018-09-24T18:59:14.945Z,99.90
2018-09-24T19:01:49.007Z,99.90
2018-09-24T19:04:23.138Z,99.90
2018-09-24T19:06:57.364Z,99.90
2018-09-24T19:09:31.444Z,99.90
2018-09-24T19:12:05.470Z,99.90
2018-09-24T19:14:39.410Z,99.90
2018-09-24T19:17:13.470Z,99.90
2018-09-24T19:19:48.275Z,99.90
2018-09-24T19:22:23.081Z,99.90
2018-09-24T19:24:57.447Z,99.90
2018-09-24T19:27:31.808Z,99.90
2018-09-24T19:30:06.102Z,99.90
2018-09-24T19:32:40.406Z,99.90
2018-09-24T19:35:14.503Z,99.90
2018-09-24T19:37:48.383Z,99.90
2018-09-24T19:40:22.334Z,99.90
2018-09-24T19:42:56.589Z,99.90
2018-09-24T19:45:30.647Z,99.90
2018-09-24T19:48:04.730Z,99.90
2018-09-24T19:50:38.760Z,99.90
2018-09-24T19:53:12.842Z,99.90
2018-09-24T19:55:46.670Z,99.90
2018-09-24T19:58:21.328Z,99.90
2018-09-24T20:00:55.331Z,99.90
2018-09-24T20:03:29.494Z,99.90
2018-09-24T20:06:03.613Z,99.90
2018-09-24T20:08:37.648Z,99.90
2018-09-24T20:11:11.694Z,99.90
2018-09-24T20:13:45.726Z,99.90
2018-09-24T20:16:19.748Z,99.90
2018-09-24T20:18:53.541Z,99.90
2018-09-24T20:21:28.146Z,99.90
2018-09-24T20:24:02.152Z,99.90
2018-09-24T20:26:36.084Z,99.90
2018-09-24T20:29:10.122Z,99.90
2018-09-24T20:31:44.385Z,99.90
2018-09-24T20:34:18.526Z,99.90
2018-09-24T20:36:52.453Z,99.90
2018-09-24T20:39:26.732Z,99.90
2018-09-24T20:42:00.961Z,99.90
2018-09-24T20:44:35.074Z,99.90
2018-09-24T20:47:09.473Z,99.90
2018-09-24T20:49:43.261Z,99.90
2018-09-24T20:52:17.263Z,99.90
2018-09-24T20:54:51.216Z,99.90
2018-09-24T20:57:25.468Z,99.90
2018-09-24T20:59:59.435Z,99.90
2018-09-24T21:02:33.510Z,99.90
2018-09-24T21:05:07.644Z,99.90
2018-09-24T21:07:41.536Z,99.90
2018-09-24T21:10:15.545Z,99.90
2018-09-24T21:12:50.279Z,99.90
2018-09-24T21:15:24.260Z,99.90
2018-09-24T21:17:58.052Z,99.90
2018-09-24T21:20:32.330Z,99.90
2018-09-24T21:23:06.392Z,99.90
2018-09-24T21:25:40.467Z,99.90
2018-09-24T21:28:14.436Z,99.90
2018-09-24T21:30:48.867Z,99.90
2018-09-24T21:33:22.821Z,99.90
2018-09-24T21:35:56.957Z,99.90
2018-09-24T21:38:30.984Z,99.90
2018-09-24T21:41:04.836Z,99.90
2018-09-24T21:43:38.653Z,99.90
2018-09-24T21:46:12.498Z,99.90
2018-09-24T21:48:46.364Z,99.90
2018-09-24T21:51:20.520Z,99.90
2018-09-24T21:53:54.606Z,99.90
2018-09-24T21:56:28.957Z,99.90
2018-09-24T21:59:02.859Z,99.90
2018-09-24T22:01:36.909Z,99.90
2018-09-24T22:04:11.028Z,99.90
2018-09-24T22:06:45.072Z,99.90
2018-09-24T22:09:19.283Z,99.90
2018-09-24T22:11:53.928Z,99.90
2018-09-24T22:14:32.749Z,99.90
2018-09-24T22:17:07.981Z,99.90
2018-09-24T22:19:42.648Z,99.90
2018-09-24T22:22:17.113Z,99.90
2018-09-24T22:24:52.666Z,99.90
2018-09-24T22:27:26.930Z,99.90
2018-09-24T22:30:03.109Z,99.90
2018-09-24T22:32:38.053Z,99.90
2018-09-24T22:35:12.896Z,99.90
2018-09-24T22:37:47.570Z,99.90
2018-09-24T22:40:22.160Z,99.90
2018-09-24T22:42:56.578Z,99.90
2018-09-24T22:45:31.127Z,99.90
2018-09-24T22:48:05.242Z,99.90
2018-09-24T22:50:39.687Z,99.90
2018-09-24T22:53:14.283Z,99.90
2018-09-24T22:55:49.033Z,99.90
2018-09-24T22:58:23.611Z,99.90
2018-09-24T23:00:57.818Z,99.90
2018-09-24T23:03:32.945Z,99.90
2018-09-24T23:06:07.257Z,99.90
2018-09-24T23:08:42.101Z,99.90
2018-09-24T23:11:15.965Z,99.90
2018-09-24T23:13:49.921Z,99.90
2018-09-24T23:16:23.936Z,99.90
2018-09-24T23:18:58.469Z,99.90
2018-09-24T23:21:32.433Z,99.90
2018-09-24T23:24:06.611Z,99.90
2018-09-24T23:26:40.308Z,99.90
2018-09-24T23:29:14.811Z,99.90
2018-09-24T23:31:48.580Z,99.90
2018-09-24T23:34:23.314Z,99.90
2018-09-24T23:36:57.276Z,99.90
2018-09-24T23:39:31.161Z,99.90
2018-09-24T23:42:04.975Z,99.90
2018-09-24T23:44:38.724Z,99.90
2018-09-24T23:47:12.870Z,99.90
2018-09-24T23:49:46.765Z,99.90
2018-09-24T23:52:20.700Z,99.90
2018-09-24T23:54:54.916Z,99.90
2018-09-24T23:57:28.674Z,99.90
